sensor_id;sensor_type;location;lat;lon;timestamp;P1;durP1;ratioP1;P2;durP2;ratioP2
24411;SDS011;12544;46.760;15.942;2023-02-23T00:01:57;49.85;;;27.50;;
24411;SDS011;12544;46.760;15.942;2023-02-23T00:04:29;39.03;;;25.13;;
24411;SDS011;12544;46.760;15.942;2023-02-23T00:06:55;38.60;;;24.38;;
24411;SDS011;12544;46.760;15.942;2023-02-23T00:09:20;42.13;;;26.02;;
24411;SDS011;12544;46.760;15.942;2023-02-23T00:11:49;44.20;;;27.10;;
24411;SDS011;12544;46.760;15.942;2023-02-23T00:14:27;39.72;;;25.45;;
24411;SDS011;12544;46.760;15.942;2023-02-23T00:16:55;37.72;;;25.42;;
24411;SDS011;12544;46.760;15.942;2023-02-23T00:19:21;46.05;;;26.70;;
24411;SDS011;12544;46.760;15.942;2023-02-23T00:22:01;42.88;;;25.67;;
24411;SDS011;12544;46.760;15.942;2023-02-23T00:24:26;46.75;;;27.50;;
24411;SDS011;12544;46.760;15.942;2023-02-23T00:26:53;62.85;;;33.20;;
24411;SDS011;12544;46.760;15.942;2023-02-23T00:29:20;62.65;;;34.00;;
24411;SDS011;12544;46.760;15.942;2023-02-23T00:31:47;60.70;;;34.28;;
24411;SDS011;12544;46.760;15.942;2023-02-23T00:34:15;58.92;;;33.15;;
24411;SDS011;12544;46.760;15.942;2023-02-23T00:36:45;61.33;;;33.78;;
24411;SDS011;12544;46.760;15.942;2023-02-23T00:39:13;63.33;;;37.17;;
24411;SDS011;12544;46.760;15.942;2023-02-23T00:41:45;46.35;;;29.33;;
24411;SDS011;12544;46.760;15.942;2023-02-23T00:44:12;66.60;;;35.47;;
24411;SDS011;12544;46.760;15.942;2023-02-23T00:46:43;65.18;;;35.70;;
24411;SDS011;12544;46.760;15.942;2023-02-23T00:49:12;46.17;;;29.73;;
24411;SDS011;12544;46.760;15.942;2023-02-23T00:51:38;70.47;;;36.53;;
24411;SDS011;12544;46.760;15.942;2023-02-23T00:54:05;61.92;;;35.35;;
24411;SDS011;12544;46.760;15.942;2023-02-23T00:56:31;66.55;;;36.25;;
24411;SDS011;12544;46.760;15.942;2023-02-23T00:58:57;70.40;;;37.70;;
24411;SDS011;12544;46.760;15.942;2023-02-23T01:01:23;62.67;;;36.33;;
24411;SDS011;12544;46.760;15.942;2023-02-23T01:03:49;60.08;;;34.83;;
24411;SDS011;12544;46.760;15.942;2023-02-23T01:06:16;67.50;;;36.63;;
24411;SDS011;12544;46.760;15.942;2023-02-23T01:08:43;60.95;;;35.97;;
24411;SDS011;12544;46.760;15.942;2023-02-23T01:11:20;63.17;;;33.63;;
24411;SDS011;12544;46.760;15.942;2023-02-23T01:13:48;58.72;;;33.65;;
24411;SDS011;12544;46.760;15.942;2023-02-23T01:16:19;56.95;;;32.70;;
24411;SDS011;12544;46.760;15.942;2023-02-23T01:18:49;55.92;;;33.35;;
24411;SDS011;12544;46.760;15.942;2023-02-23T01:21:15;56.75;;;32.67;;
24411;SDS011;12544;46.760;15.942;2023-02-23T01:23:43;57.83;;;33.92;;
24411;SDS011;12544;46.760;15.942;2023-02-23T01:26:24;61.80;;;34.97;;
24411;SDS011;12544;46.760;15.942;2023-02-23T01:31:23;58.30;;;32.00;;
24411;SDS011;12544;46.760;15.942;2023-02-23T01:33:56;66.82;;;36.53;;
24411;SDS011;12544;46.760;15.942;2023-02-23T01:36:23;62.95;;;34.75;;
24411;SDS011;12544;46.760;15.942;2023-02-23T01:38:50;63.58;;;35.53;;
24411;SDS011;12544;46.760;15.942;2023-02-23T01:41:20;59.08;;;33.40;;
24411;SDS011;12544;46.760;15.942;2023-02-23T01:46:44;61.05;;;35.17;;
24411;SDS011;12544;46.760;15.942;2023-02-23T01:49:15;65.45;;;37.38;;
24411;SDS011;12544;46.760;15.942;2023-02-23T01:54:31;68.60;;;37.58;;
24411;SDS011;12544;46.760;15.942;2023-02-23T01:57:00;69.35;;;38.50;;
24411;SDS011;12544;46.760;15.942;2023-02-23T01:59:38;69.72;;;39.58;;
24411;SDS011;12544;46.760;15.942;2023-02-23T02:02:09;73.88;;;39.97;;
24411;SDS011;12544;46.760;15.942;2023-02-23T02:04:37;68.25;;;38.03;;
24411;SDS011;12544;46.760;15.942;2023-02-23T02:09:44;65.47;;;37.33;;
24411;SDS011;12544;46.760;15.942;2023-02-23T02:12:29;62.20;;;36.03;;
24411;SDS011;12544;46.760;15.942;2023-02-23T02:14:55;67.10;;;36.30;;
24411;SDS011;12544;46.760;15.942;2023-02-23T02:22:45;47.70;;;30.23;;
24411;SDS011;12544;46.760;15.942;2023-02-23T02:28:05;67.18;;;38.42;;
24411;SDS011;12544;46.760;15.942;2023-02-23T02:36:09;66.95;;;36.33;;
24411;SDS011;12544;46.760;15.942;2023-02-23T02:47:16;69.70;;;39.47;;
24411;SDS011;12544;46.760;15.942;2023-02-23T02:49:53;68.35;;;37.97;;
24411;SDS011;12544;46.760;15.942;2023-02-23T02:52:29;63.33;;;36.47;;
24411;SDS011;12544;46.760;15.942;2023-02-23T02:55:21;62.47;;;35.92;;
24411;SDS011;12544;46.760;15.942;2023-02-23T02:57:56;72.30;;;39.55;;
24411;SDS011;12544;46.760;15.942;2023-02-23T03:00:26;69.18;;;40.53;;
24411;SDS011;12544;46.760;15.942;2023-02-23T03:03:28;71.78;;;41.35;;
24411;SDS011;12544;46.760;15.942;2023-02-23T03:06:26;79.32;;;40.88;;
24411;SDS011;12544;46.760;15.942;2023-02-23T03:09:19;69.00;;;38.28;;
24411;SDS011;12544;46.760;15.942;2023-02-23T03:12:10;66.45;;;37.00;;
24411;SDS011;12544;46.760;15.942;2023-02-23T03:15:12;65.70;;;38.15;;
24411;SDS011;12544;46.760;15.942;2023-02-23T03:18:11;65.40;;;36.97;;
24411;SDS011;12544;46.760;15.942;2023-02-23T03:21:14;59.72;;;33.53;;
24411;SDS011;12544;46.760;15.942;2023-02-23T03:27:03;68.65;;;38.20;;
24411;SDS011;12544;46.760;15.942;2023-02-23T03:32:49;62.45;;;35.30;;
24411;SDS011;12544;46.760;15.942;2023-02-23T03:38:44;66.32;;;37.20;;
24411;SDS011;12544;46.760;15.942;2023-02-23T03:41:33;63.63;;;34.88;;
24411;SDS011;12544;46.760;15.942;2023-02-23T03:44:30;62.30;;;35.85;;
24411;SDS011;12544;46.760;15.942;2023-02-23T03:47:16;57.83;;;34.03;;
24411;SDS011;12544;46.760;15.942;2023-02-23T03:50:06;61.33;;;35.35;;
24411;SDS011;12544;46.760;15.942;2023-02-23T03:52:55;62.40;;;36.13;;
24411;SDS011;12544;46.760;15.942;2023-02-23T03:55:42;57.00;;;34.00;;
24411;SDS011;12544;46.760;15.942;2023-02-23T03:58:32;61.33;;;37.75;;
24411;SDS011;12544;46.760;15.942;2023-02-23T04:01:23;58.42;;;34.92;;
24411;SDS011;12544;46.760;15.942;2023-02-23T04:06:58;60.03;;;33.47;;
24411;SDS011;12544;46.760;15.942;2023-02-23T04:09:44;56.30;;;32.00;;
24411;SDS011;12544;46.760;15.942;2023-02-23T04:12:31;54.60;;;30.58;;
24411;SDS011;12544;46.760;15.942;2023-02-23T04:15:26;62.40;;;33.13;;
24411;SDS011;12544;46.760;15.942;2023-02-23T04:17:57;57.70;;;34.72;;
24411;SDS011;12544;46.760;15.942;2023-02-23T04:20:25;66.78;;;36.22;;
24411;SDS011;12544;46.760;15.942;2023-02-23T04:22:51;59.40;;;34.20;;
24411;SDS011;12544;46.760;15.942;2023-02-23T04:25:17;55.22;;;32.65;;
24411;SDS011;12544;46.760;15.942;2023-02-23T04:27:46;58.35;;;33.33;;
24411;SDS011;12544;46.760;15.942;2023-02-23T04:30:15;66.72;;;36.95;;
24411;SDS011;12544;46.760;15.942;2023-02-23T04:32:42;63.90;;;37.25;;
24411;SDS011;12544;46.760;15.942;2023-02-23T04:35:10;67.00;;;35.80;;
24411;SDS011;12544;46.760;15.942;2023-02-23T04:37:37;62.40;;;34.33;;
24411;SDS011;12544;46.760;15.942;2023-02-23T04:40:03;53.08;;;31.38;;
24411;SDS011;12544;46.760;15.942;2023-02-23T04:42:30;59.05;;;33.13;;
24411;SDS011;12544;46.760;15.942;2023-02-23T04:44:55;53.17;;;32.63;;
24411;SDS011;12544;46.760;15.942;2023-02-23T04:47:21;54.78;;;35.42;;
24411;SDS011;12544;46.760;15.942;2023-02-23T04:49:47;58.78;;;35.58;;
24411;SDS011;12544;46.760;15.942;2023-02-23T04:52:13;59.13;;;36.35;;
24411;SDS011;12544;46.760;15.942;2023-02-23T04:54:39;55.30;;;33.47;;
24411;SDS011;12544;46.760;15.942;2023-02-23T04:57:04;63.28;;;38.00;;
24411;SDS011;12544;46.760;15.942;2023-02-23T04:59:30;57.60;;;34.58;;
24411;SDS011;12544;46.760;15.942;2023-02-23T05:01:56;56.20;;;34.05;;
24411;SDS011;12544;46.760;15.942;2023-02-23T05:04:22;63.55;;;38.00;;
24411;SDS011;12544;46.760;15.942;2023-02-23T05:06:48;59.10;;;35.30;;
24411;SDS011;12544;46.760;15.942;2023-02-23T05:09:14;57.90;;;33.67;;
24411;SDS011;12544;46.760;15.942;2023-02-23T05:11:39;62.67;;;35.47;;
24411;SDS011;12544;46.760;15.942;2023-02-23T05:14:05;65.82;;;37.40;;
24411;SDS011;12544;46.760;15.942;2023-02-23T05:16:31;56.92;;;36.47;;
24411;SDS011;12544;46.760;15.942;2023-02-23T05:18:57;63.92;;;36.78;;
24411;SDS011;12544;46.760;15.942;2023-02-23T05:21:23;68.70;;;40.67;;
24411;SDS011;12544;46.760;15.942;2023-02-23T05:23:49;62.28;;;39.25;;
24411;SDS011;12544;46.760;15.942;2023-02-23T05:26:14;67.20;;;38.47;;
24411;SDS011;12544;46.760;15.942;2023-02-23T05:28:41;64.80;;;37.13;;
24411;SDS011;12544;46.760;15.942;2023-02-23T05:31:07;67.82;;;38.25;;
24411;SDS011;12544;46.760;15.942;2023-02-23T05:33:33;70.82;;;38.42;;
24411;SDS011;12544;46.760;15.942;2023-02-23T05:36:06;61.88;;;35.58;;
24411;SDS011;12544;46.760;15.942;2023-02-23T05:38:35;60.95;;;35.50;;
24411;SDS011;12544;46.760;15.942;2023-02-23T05:41:05;67.60;;;36.60;;
24411;SDS011;12544;46.760;15.942;2023-02-23T05:46:17;62.28;;;35.08;;
24411;SDS011;12544;46.760;15.942;2023-02-23T05:48:45;68.95;;;36.17;;
24411;SDS011;12544;46.760;15.942;2023-02-23T05:51:12;67.57;;;37.53;;
24411;SDS011;12544;46.760;15.942;2023-02-23T05:53:39;62.72;;;35.47;;
24411;SDS011;12544;46.760;15.942;2023-02-23T05:56:06;69.35;;;37.50;;
24411;SDS011;12544;46.760;15.942;2023-02-23T05:58:35;58.53;;;32.55;;
24411;SDS011;12544;46.760;15.942;2023-02-23T06:01:01;62.60;;;33.90;;
24411;SDS011;12544;46.760;15.942;2023-02-23T06:03:27;55.40;;;32.50;;
24411;SDS011;12544;46.760;15.942;2023-02-23T06:05:53;56.35;;;31.17;;
24411;SDS011;12544;46.760;15.942;2023-02-23T06:08:21;57.47;;;33.50;;
24411;SDS011;12544;46.760;15.942;2023-02-23T06:10:47;56.78;;;32.65;;
24411;SDS011;12544;46.760;15.942;2023-02-23T06:13:13;65.22;;;35.70;;
24411;SDS011;12544;46.760;15.942;2023-02-23T06:15:50;64.38;;;36.28;;
24411;SDS011;12544;46.760;15.942;2023-02-23T06:18:16;66.60;;;35.00;;
24411;SDS011;12544;46.760;15.942;2023-02-23T06:20:41;64.55;;;35.78;;
24411;SDS011;12544;46.760;15.942;2023-02-23T06:23:07;67.80;;;37.05;;
24411;SDS011;12544;46.760;15.942;2023-02-23T06:25:33;71.75;;;39.33;;
24411;SDS011;12544;46.760;15.942;2023-02-23T06:27:59;65.78;;;39.00;;
24411;SDS011;12544;46.760;15.942;2023-02-23T06:30:24;74.22;;;40.42;;
24411;SDS011;12544;46.760;15.942;2023-02-23T06:32:50;66.50;;;38.70;;
24411;SDS011;12544;46.760;15.942;2023-02-23T06:35:15;70.28;;;39.10;;
24411;SDS011;12544;46.760;15.942;2023-02-23T06:37:41;68.93;;;40.28;;
24411;SDS011;12544;46.760;15.942;2023-02-23T06:40:07;71.18;;;40.25;;
24411;SDS011;12544;46.760;15.942;2023-02-23T06:42:34;69.60;;;39.60;;
24411;SDS011;12544;46.760;15.942;2023-02-23T06:45:01;72.38;;;39.90;;
24411;SDS011;12544;46.760;15.942;2023-02-23T06:47:27;103.60;;;52.50;;
24411;SDS011;12544;46.760;15.942;2023-02-23T06:49:53;84.25;;;42.15;;
24411;SDS011;12544;46.760;15.942;2023-02-23T06:52:18;76.50;;;42.83;;
24411;SDS011;12544;46.760;15.942;2023-02-23T06:54:44;73.45;;;40.00;;
24411;SDS011;12544;46.760;15.942;2023-02-23T06:57:10;75.10;;;40.72;;
24411;SDS011;12544;46.760;15.942;2023-02-23T06:59:36;76.28;;;40.90;;
24411;SDS011;12544;46.760;15.942;2023-02-23T07:02:02;74.47;;;41.28;;
24411;SDS011;12544;46.760;15.942;2023-02-23T07:04:31;78.22;;;40.17;;
24411;SDS011;12544;46.760;15.942;2023-02-23T07:06:57;77.65;;;43.40;;
24411;SDS011;12544;46.760;15.942;2023-02-23T07:09:23;78.88;;;42.83;;
24411;SDS011;12544;46.760;15.942;2023-02-23T07:11:49;90.07;;;44.72;;
24411;SDS011;12544;46.760;15.942;2023-02-23T07:14:14;81.70;;;44.80;;
24411;SDS011;12544;46.760;15.942;2023-02-23T07:16:40;80.53;;;42.60;;
24411;SDS011;12544;46.760;15.942;2023-02-23T07:19:08;78.63;;;43.95;;
24411;SDS011;12544;46.760;15.942;2023-02-23T07:21:34;105.35;;;53.47;;
24411;SDS011;12544;46.760;15.942;2023-02-23T07:24:00;111.72;;;58.35;;
24411;SDS011;12544;46.760;15.942;2023-02-23T07:26:28;94.45;;;49.63;;
24411;SDS011;12544;46.760;15.942;2023-02-23T07:28:54;79.35;;;44.40;;
24411;SDS011;12544;46.760;15.942;2023-02-23T07:31:20;101.90;;;52.30;;
24411;SDS011;12544;46.760;15.942;2023-02-23T07:36:18;70.97;;;42.65;;
24411;SDS011;12544;46.760;15.942;2023-02-23T07:38:45;77.10;;;40.70;;
24411;SDS011;12544;46.760;15.942;2023-02-23T07:41:10;77.65;;;43.67;;
24411;SDS011;12544;46.760;15.942;2023-02-23T07:43:36;80.63;;;41.63;;
24411;SDS011;12544;46.760;15.942;2023-02-23T07:46:09;81.82;;;43.40;;
24411;SDS011;12544;46.760;15.942;2023-02-23T07:48:34;79.43;;;42.63;;
24411;SDS011;12544;46.760;15.942;2023-02-23T07:51:00;76.95;;;42.40;;
24411;SDS011;12544;46.760;15.942;2023-02-23T07:53:26;75.25;;;43.67;;
24411;SDS011;12544;46.760;15.942;2023-02-23T07:55:58;74.20;;;41.78;;
24411;SDS011;12544;46.760;15.942;2023-02-23T07:58:25;71.30;;;42.03;;
24411;SDS011;12544;46.760;15.942;2023-02-23T08:00:53;74.75;;;40.72;;
24411;SDS011;12544;46.760;15.942;2023-02-23T08:03:19;84.80;;;46.03;;
24411;SDS011;12544;46.760;15.942;2023-02-23T08:05:44;79.10;;;43.33;;
24411;SDS011;12544;46.760;15.942;2023-02-23T08:08:10;82.00;;;46.17;;
24411;SDS011;12544;46.760;15.942;2023-02-23T08:10:36;82.90;;;46.58;;
24411;SDS011;12544;46.760;15.942;2023-02-23T08:13:02;77.43;;;44.67;;
24411;SDS011;12544;46.760;15.942;2023-02-23T08:15:28;73.68;;;40.35;;
24411;SDS011;12544;46.760;15.942;2023-02-23T08:17:55;69.20;;;40.83;;
24411;SDS011;12544;46.760;15.942;2023-02-23T08:20:21;69.80;;;40.47;;
24411;SDS011;12544;46.760;15.942;2023-02-23T08:25:24;72.78;;;39.42;;
24411;SDS011;12544;46.760;15.942;2023-02-23T08:27:51;61.50;;;37.38;;
24411;SDS011;12544;46.760;15.942;2023-02-23T08:30:18;71.05;;;37.95;;
24411;SDS011;12544;46.760;15.942;2023-02-23T08:32:47;65.18;;;36.33;;
24411;SDS011;12544;46.760;15.942;2023-02-23T08:35:13;55.20;;;34.17;;
24411;SDS011;12544;46.760;15.942;2023-02-23T08:37:39;60.55;;;34.83;;
24411;SDS011;12544;46.760;15.942;2023-02-23T08:40:06;63.40;;;34.63;;
24411;SDS011;12544;46.760;15.942;2023-02-23T08:42:32;63.50;;;32.40;;
24411;SDS011;12544;46.760;15.942;2023-02-23T08:44:59;54.47;;;32.22;;
24411;SDS011;12544;46.760;15.942;2023-02-23T08:47:25;59.80;;;32.90;;
24411;SDS011;12544;46.760;15.942;2023-02-23T08:49:51;51.30;;;30.45;;
24411;SDS011;12544;46.760;15.942;2023-02-23T08:52:20;53.55;;;32.88;;
24411;SDS011;12544;46.760;15.942;2023-02-23T08:54:47;53.30;;;33.08;;
24411;SDS011;12544;46.760;15.942;2023-02-23T08:57:12;57.08;;;33.20;;
24411;SDS011;12544;46.760;15.942;2023-02-23T08:59:38;56.17;;;32.85;;
24411;SDS011;12544;46.760;15.942;2023-02-23T09:02:08;49.05;;;29.55;;
24411;SDS011;12544;46.760;15.942;2023-02-23T09:04:36;56.85;;;31.95;;
24411;SDS011;12544;46.760;15.942;2023-02-23T09:07:02;48.97;;;30.65;;
24411;SDS011;12544;46.760;15.942;2023-02-23T09:09:28;52.30;;;32.03;;
24411;SDS011;12544;46.760;15.942;2023-02-23T09:11:54;55.20;;;32.88;;
24411;SDS011;12544;46.760;15.942;2023-02-23T09:14:20;52.65;;;32.80;;
24411;SDS011;12544;46.760;15.942;2023-02-23T09:16:46;57.03;;;33.10;;
24411;SDS011;12544;46.760;15.942;2023-02-23T09:19:12;52.65;;;32.08;;
24411;SDS011;12544;46.760;15.942;2023-02-23T09:21:38;52.47;;;34.28;;
24411;SDS011;12544;46.760;15.942;2023-02-23T09:24:03;61.65;;;33.63;;
24411;SDS011;12544;46.760;15.942;2023-02-23T09:26:30;54.15;;;33.20;;
24411;SDS011;12544;46.760;15.942;2023-02-23T09:28:57;53.78;;;32.67;;
24411;SDS011;12544;46.760;15.942;2023-02-23T09:31:24;56.10;;;33.83;;
24411;SDS011;12544;46.760;15.942;2023-02-23T09:33:50;55.30;;;32.85;;
24411;SDS011;12544;46.760;15.942;2023-02-23T09:36:20;48.22;;;30.98;;
24411;SDS011;12544;46.760;15.942;2023-02-23T09:38:49;56.50;;;31.02;;
24411;SDS011;12544;46.760;15.942;2023-02-23T09:49:40;52.25;;;31.52;;
24411;SDS011;12544;46.760;15.942;2023-02-23T09:52:11;49.78;;;31.63;;
24411;SDS011;12544;46.760;15.942;2023-02-23T09:54:41;52.05;;;31.67;;
24411;SDS011;12544;46.760;15.942;2023-02-23T09:57:10;46.38;;;31.05;;
24411;SDS011;12544;46.760;15.942;2023-02-23T10:04:45;50.22;;;31.60;;
24411;SDS011;12544;46.760;15.942;2023-02-23T10:07:20;48.00;;;30.55;;
24411;SDS011;12544;46.760;15.942;2023-02-23T10:23:42;45.58;;;29.80;;
24411;SDS011;12544;46.760;15.942;2023-02-23T10:29:00;51.97;;;29.88;;
24411;SDS011;12544;46.760;15.942;2023-02-23T10:31:39;51.30;;;31.52;;
24411;SDS011;12544;46.760;15.942;2023-02-23T10:34:15;55.75;;;32.13;;
24411;SDS011;12544;46.760;15.942;2023-02-23T10:36:52;53.00;;;31.38;;
24411;SDS011;12544;46.760;15.942;2023-02-23T10:39:25;48.28;;;31.20;;
24411;SDS011;12544;46.760;15.942;2023-02-23T10:41:56;49.55;;;31.02;;
24411;SDS011;12544;46.760;15.942;2023-02-23T10:44:25;48.03;;;30.08;;
24411;SDS011;12544;46.760;15.942;2023-02-23T10:47:08;49.85;;;30.40;;
24411;SDS011;12544;46.760;15.942;2023-02-23T10:49:44;53.92;;;32.90;;
24411;SDS011;12544;46.760;15.942;2023-02-23T10:52:14;48.65;;;30.75;;
24411;SDS011;12544;46.760;15.942;2023-02-23T10:54:47;54.05;;;32.60;;
24411;SDS011;12544;46.760;15.942;2023-02-23T10:57:19;50.38;;;31.80;;
24411;SDS011;12544;46.760;15.942;2023-02-23T10:59:59;46.03;;;32.13;;
24411;SDS011;12544;46.760;15.942;2023-02-23T11:02:40;48.30;;;30.52;;
24411;SDS011;12544;46.760;15.942;2023-02-23T11:05:06;51.60;;;31.05;;
24411;SDS011;12544;46.760;15.942;2023-02-23T11:07:49;46.50;;;28.98;;
24411;SDS011;12544;46.760;15.942;2023-02-23T11:10:32;49.00;;;31.88;;
24411;SDS011;12544;46.760;15.942;2023-02-23T11:12:58;50.50;;;30.73;;
24411;SDS011;12544;46.760;15.942;2023-02-23T11:18:02;51.92;;;30.25;;
24411;SDS011;12544;46.760;15.942;2023-02-23T11:20:31;47.45;;;29.92;;
24411;SDS011;12544;46.760;15.942;2023-02-23T11:26:02;45.17;;;29.65;;
24411;SDS011;12544;46.760;15.942;2023-02-23T11:28:35;51.33;;;29.80;;
24411;SDS011;12544;46.760;15.942;2023-02-23T11:33:33;47.75;;;29.63;;
24411;SDS011;12544;46.760;15.942;2023-02-23T11:36:13;44.92;;;29.02;;
24411;SDS011;12544;46.760;15.942;2023-02-23T11:38:41;50.80;;;31.63;;
24411;SDS011;12544;46.760;15.942;2023-02-23T11:41:21;47.95;;;30.52;;
24411;SDS011;12544;46.760;15.942;2023-02-23T11:43:49;41.83;;;29.30;;
24411;SDS011;12544;46.760;15.942;2023-02-23T11:46:26;50.25;;;31.55;;
24411;SDS011;12544;46.760;15.942;2023-02-23T11:49:06;75.63;;;41.53;;
24411;SDS011;12544;46.760;15.942;2023-02-23T11:51:40;71.72;;;42.72;;
24411;SDS011;12544;46.760;15.942;2023-02-23T11:56:52;58.40;;;37.97;;
24411;SDS011;12544;46.760;15.942;2023-02-23T11:59:21;60.15;;;37.28;;
24411;SDS011;12544;46.760;15.942;2023-02-23T12:01:55;52.05;;;31.95;;
24411;SDS011;12544;46.760;15.942;2023-02-23T12:04:46;49.08;;;31.23;;
24411;SDS011;12544;46.760;15.942;2023-02-23T12:10:23;56.17;;;33.75;;
24411;SDS011;12544;46.760;15.942;2023-02-23T12:12:55;48.00;;;29.23;;
24411;SDS011;12544;46.760;15.942;2023-02-23T12:15:43;57.15;;;33.47;;
24411;SDS011;12544;46.760;15.942;2023-02-23T12:21:22;50.40;;;30.52;;
24411;SDS011;12544;46.760;15.942;2023-02-23T12:23:54;51.70;;;31.48;;
24411;SDS011;12544;46.760;15.942;2023-02-23T12:26:44;49.65;;;29.30;;
24411;SDS011;12544;46.760;15.942;2023-02-23T12:29:40;51.75;;;30.58;;
24411;SDS011;12544;46.760;15.942;2023-02-23T12:32:25;43.80;;;27.90;;
24411;SDS011;12544;46.760;15.942;2023-02-23T12:35:18;45.90;;;27.85;;
24411;SDS011;12544;46.760;15.942;2023-02-23T12:40:55;46.25;;;29.70;;
24411;SDS011;12544;46.760;15.942;2023-02-23T12:43:47;43.17;;;27.50;;
24411;SDS011;12544;46.760;15.942;2023-02-23T12:46:21;44.38;;;27.65;;
24411;SDS011;12544;46.760;15.942;2023-02-23T12:52:09;52.85;;;29.80;;
24411;SDS011;12544;46.760;15.942;2023-02-23T12:54:49;44.58;;;29.08;;
24411;SDS011;12544;46.760;15.942;2023-02-23T13:02:45;44.83;;;29.10;;
24411;SDS011;12544;46.760;15.942;2023-02-23T13:13:56;48.20;;;30.52;;
24411;SDS011;12544;46.760;15.942;2023-02-23T13:16:41;54.25;;;31.48;;
24411;SDS011;12544;46.760;15.942;2023-02-23T13:21:41;52.13;;;31.50;;
24411;SDS011;12544;46.760;15.942;2023-02-23T13:24:28;51.38;;;32.03;;
24411;SDS011;12544;46.760;15.942;2023-02-23T13:27:11;54.50;;;32.67;;
24411;SDS011;12544;46.760;15.942;2023-02-23T13:30:09;49.83;;;31.10;;
24411;SDS011;12544;46.760;15.942;2023-02-23T13:32:35;60.38;;;34.58;;
24411;SDS011;12544;46.760;15.942;2023-02-23T13:35:04;59.90;;;34.88;;
24411;SDS011;12544;46.760;15.942;2023-02-23T13:37:52;66.32;;;37.13;;
24411;SDS011;12544;46.760;15.942;2023-02-23T13:43:16;50.03;;;32.78;;
24411;SDS011;12544;46.760;15.942;2023-02-23T13:45:51;50.80;;;32.20;;
24411;SDS011;12544;46.760;15.942;2023-02-23T13:48:50;53.28;;;33.58;;
24411;SDS011;12544;46.760;15.942;2023-02-23T13:51:36;60.08;;;35.25;;
24411;SDS011;12544;46.760;15.942;2023-02-23T13:54:04;61.22;;;36.90;;
24411;SDS011;12544;46.760;15.942;2023-02-23T13:56:32;59.25;;;35.67;;
24411;SDS011;12544;46.760;15.942;2023-02-23T13:59:20;56.53;;;33.83;;
24411;SDS011;12544;46.760;15.942;2023-02-23T14:01:50;63.30;;;35.92;;
24411;SDS011;12544;46.760;15.942;2023-02-23T14:04:33;54.38;;;34.50;;
24411;SDS011;12544;46.760;15.942;2023-02-23T14:09:33;49.28;;;31.13;;
24411;SDS011;12544;46.760;15.942;2023-02-23T14:12:15;55.28;;;34.20;;
24411;SDS011;12544;46.760;15.942;2023-02-23T14:14:47;50.67;;;31.60;;
24411;SDS011;12544;46.760;15.942;2023-02-23T14:19:42;56.05;;;32.55;;
24411;SDS011;12544;46.760;15.942;2023-02-23T14:22:15;56.95;;;32.70;;
24411;SDS011;12544;46.760;15.942;2023-02-23T14:24:45;61.13;;;35.63;;
24411;SDS011;12544;46.760;15.942;2023-02-23T14:27:33;51.35;;;33.17;;
24411;SDS011;12544;46.760;15.942;2023-02-23T14:32:44;54.88;;;32.20;;
24411;SDS011;12544;46.760;15.942;2023-02-23T14:37:59;50.78;;;31.20;;
24411;SDS011;12544;46.760;15.942;2023-02-23T14:40:30;55.78;;;33.20;;
24411;SDS011;12544;46.760;15.942;2023-02-23T14:42:59;56.28;;;32.47;;
24411;SDS011;12544;46.760;15.942;2023-02-23T14:45:28;49.88;;;31.58;;
24411;SDS011;12544;46.760;15.942;2023-02-23T14:47:57;52.28;;;32.67;;
24411;SDS011;12544;46.760;15.942;2023-02-23T14:50:37;61.10;;;35.08;;
24411;SDS011;12544;46.760;15.942;2023-02-23T14:53:05;58.30;;;34.72;;
24411;SDS011;12544;46.760;15.942;2023-02-23T14:55:39;57.65;;;33.25;;
24411;SDS011;12544;46.760;15.942;2023-02-23T14:58:25;51.97;;;32.67;;
24411;SDS011;12544;46.760;15.942;2023-02-23T15:00:57;55.90;;;35.13;;
24411;SDS011;12544;46.760;15.942;2023-02-23T15:03:23;56.17;;;33.22;;
24411;SDS011;12544;46.760;15.942;2023-02-23T15:05:53;66.05;;;37.22;;
24411;SDS011;12544;46.760;15.942;2023-02-23T15:08:22;64.15;;;37.78;;
24411;SDS011;12544;46.760;15.942;2023-02-23T15:10:50;57.70;;;35.85;;
24411;SDS011;12544;46.760;15.942;2023-02-23T15:13:26;56.30;;;35.70;;
24411;SDS011;12544;46.760;15.942;2023-02-23T15:16:00;66.85;;;40.45;;
24411;SDS011;12544;46.760;15.942;2023-02-23T15:18:32;57.38;;;35.95;;
24411;SDS011;12544;46.760;15.942;2023-02-23T15:21:20;58.45;;;36.08;;
24411;SDS011;12544;46.760;15.942;2023-02-23T15:23:48;55.00;;;38.47;;
24411;SDS011;12544;46.760;15.942;2023-02-23T15:26:35;60.40;;;36.88;;
24411;SDS011;12544;46.760;15.942;2023-02-23T15:29:23;65.00;;;39.00;;
24411;SDS011;12544;46.760;15.942;2023-02-23T15:32:08;60.28;;;39.13;;
24411;SDS011;12544;46.760;15.942;2023-02-23T15:34:39;45.08;;;30.13;;
24411;SDS011;12544;46.760;15.942;2023-02-23T15:37:16;55.50;;;34.67;;
24411;SDS011;12544;46.760;15.942;2023-02-23T15:40:05;59.38;;;37.63;;
24411;SDS011;12544;46.760;15.942;2023-02-23T15:42:39;62.85;;;38.40;;
24411;SDS011;12544;46.760;15.942;2023-02-23T15:47:52;61.88;;;37.03;;
24411;SDS011;12544;46.760;15.942;2023-02-23T15:50:30;58.65;;;38.00;;
24411;SDS011;12544;46.760;15.942;2023-02-23T15:53:05;67.55;;;37.25;;
24411;SDS011;12544;46.760;15.942;2023-02-23T15:55:37;62.83;;;38.80;;
24411;SDS011;12544;46.760;15.942;2023-02-23T15:58:16;60.72;;;40.22;;
24411;SDS011;12544;46.760;15.942;2023-02-23T16:00:49;62.95;;;38.20;;
24411;SDS011;12544;46.760;15.942;2023-02-23T16:03:21;67.35;;;41.92;;
24411;SDS011;12544;46.760;15.942;2023-02-23T16:05:59;62.40;;;39.63;;
24411;SDS011;12544;46.760;15.942;2023-02-23T16:11:33;67.78;;;39.22;;
24411;SDS011;12544;46.760;15.942;2023-02-23T16:14:00;67.00;;;40.38;;
24411;SDS011;12544;46.760;15.942;2023-02-23T16:16:27;67.15;;;40.70;;
24411;SDS011;12544;46.760;15.942;2023-02-23T16:18:54;68.60;;;41.42;;
24411;SDS011;12544;46.760;15.942;2023-02-23T16:21:26;64.80;;;41.55;;
24411;SDS011;12544;46.760;15.942;2023-02-23T16:23:57;64.47;;;39.88;;
24411;SDS011;12544;46.760;15.942;2023-02-23T16:27:09;69.43;;;40.85;;
24411;SDS011;12544;46.760;15.942;2023-02-23T16:29:29;66.50;;;40.47;;
24411;SDS011;12544;46.760;15.942;2023-02-23T16:32:16;68.90;;;42.85;;
24411;SDS011;12544;46.760;15.942;2023-02-23T16:34:47;70.07;;;41.65;;
24411;SDS011;12544;46.760;15.942;2023-02-23T16:37:21;70.38;;;42.20;;
24411;SDS011;12544;46.760;15.942;2023-02-23T16:39:50;71.30;;;42.83;;
24411;SDS011;12544;46.760;15.942;2023-02-23T16:42:32;70.63;;;41.92;;
24411;SDS011;12544;46.760;15.942;2023-02-23T16:44:59;71.82;;;43.25;;
24411;SDS011;12544;46.760;15.942;2023-02-23T16:52:47;73.22;;;45.42;;
24411;SDS011;12544;46.760;15.942;2023-02-23T16:55:16;73.30;;;42.50;;
24411;SDS011;12544;46.760;15.942;2023-02-23T16:57:47;74.35;;;43.53;;
24411;SDS011;12544;46.760;15.942;2023-02-23T17:00:37;74.97;;;43.95;;
24411;SDS011;12544;46.760;15.942;2023-02-23T17:03:02;75.47;;;43.65;;
24411;SDS011;12544;46.760;15.942;2023-02-23T17:05:31;69.25;;;42.75;;